Daet, Philippines
Current Conditions -  °F | °C
As of 1:00 PM on Sunday 23 Nov 2014 (Local Time) from RPLL Reporting Station
Scattered Clouds Scattered Clouds  
Wind Chill: 88°   Ceiling: Unl
Heat Index: 100°   Visibility: 6mi
Dew Point: 77°   Wind: 8mph
Humidity: 70%   Direction: 280°W
Pressure: 29.83"   Gusts: NA
Location:  14.12°N, 122.96°E
Report Text: RPLL 230500Z 28007KT 240V340 9999 FEW025 SCT100 31/25 Q1010 NOSIG RMK A2983
Loading
Personal Weather Stations






























Interactive Weather Map New forecast layout! Learn more

10-Day Weather Forecast

Advertisements
Track Severe Weather on mobile